Time;durP1;ratioP1;P1;durP2;ratioP2;P2;SDS_P1;SDS_P2;PMS_P1;PMS_P2;Temp;Humidity;BMP_temperature;BMP_pressure;BME280_temperature;BME280_humidity;BME280_pressure;Samples;Min_cycle;Max_cycle;Signal;HPM_P1;HPM_P2
2021/04/09 00:00:17;;;;;;;7.03;6.33;;;1.10;99.90;;;;;;4970119;28;20492;-90
2021/04/09 00:02:43;;;;;;;8.70;6.60;;;1.00;99.90;;;;;;4970785;28;20888;-90
2021/04/09 00:05:11;;;;;;;7.30;6.60;;;1.00;99.90;;;;;;4953574;28;20472;-90
2021/04/09 00:07:37;;;;;;;9.37;6.47;;;1.00;99.90;;;;;;4958042;28;20468;-89
2021/04/09 00:10:07;;;;;;;8.63;6.70;;;0.90;99.90;;;;;;4973978;28;20535;-90
2021/04/09 00:12:34;;;;;;;8.40;6.37;;;0.70;99.90;;;;;;4970395;28;20859;-90
2021/04/09 00:15:00;;;;;;;6.97;5.67;;;0.60;99.90;;;;;;4956643;28;20449;-90
2021/04/09 00:17:25;;;;;;;8.47;6.37;;;0.70;99.90;;;;;;4975749;28;20456;-90
2021/04/09 00:19:51;;;;;;;8.50;6.57;;;0.60;99.90;;;;;;4972460;28;20265;-91
2021/04/09 00:22:17;;;;;;;7.90;6.10;;;0.50;99.90;;;;;;4973003;28;20783;-88
2021/04/09 00:24:42;;;;;;;6.40;5.80;;;0.60;99.90;;;;;;4974950;28;20193;-90
2021/04/09 00:27:08;;;;;;;6.90;6.20;;;0.60;99.90;;;;;;4955283;28;20193;-89
2021/04/09 00:29:34;;;;;;;7.07;6.00;;;0.70;99.90;;;;;;4973882;28;21399;-89
2021/04/09 00:31:59;;;;;;;10.70;6.30;;;0.80;99.90;;;;;;4952698;28;20201;-89
2021/04/09 00:34:25;;;;;;;8.90;6.73;;;0.80;99.90;;;;;;4974619;28;20189;-89
2021/04/09 00:36:51;;;;;;;9.07;7.00;;;0.80;99.90;;;;;;4971354;28;20229;-90
2021/04/09 00:39:16;;;;;;;9.47;7.70;;;0.70;99.90;;;;;;4974985;28;20225;-90
2021/04/09 00:41:42;;;;;;;9.13;7.77;;;0.70;99.90;;;;;;4973544;28;20205;-91
2021/04/09 00:44:10;;;;;;;13.60;8.17;;;0.70;99.90;;;;;;4942758;28;20252;-90
2021/04/09 00:46:35;;;;;;;10.07;8.37;;;0.90;99.90;;;;;;4955490;28;20449;-90
2021/04/09 00:49:03;;;;;;;12.03;8.60;;;0.90;99.90;;;;;;4950155;28;20441;-90
2021/04/09 00:51:32;;;;;;;10.67;8.10;;;0.70;99.90;;;;;;4974267;28;20511;-90
2021/04/09 00:54:01;;;;;;;12.90;9.03;;;0.70;99.90;;;;;;4971253;28;21028;-90
2021/04/09 00:56:28;;;;;;;11.00;8.67;;;0.70;99.90;;;;;;4988181;28;20441;-90
2021/04/09 00:59:00;;;;;;;12.50;9.07;;;0.70;99.90;;;;;;4970842;28;20771;-90
2021/04/09 01:01:26;;;;;;;10.27;8.63;;;0.80;99.90;;;;;;4967578;28;20464;-90
2021/04/09 01:03:54;;;;;;;9.67;7.80;;;0.80;99.90;;;;;;4956032;28;22080;-88
2021/04/09 01:06:21;;;;;;;9.00;8.07;;;0.80;99.90;;;;;;4969304;28;20440;-89
2021/04/09 01:08:51;;;;;;;9.67;7.57;;;0.70;99.90;;;;;;4953724;28;20492;-88
2021/04/09 01:13:49;;;;;;;8.90;6.93;;;0.70;99.90;;;;;;4974595;28;20451;-89
2021/04/09 01:16:47;;;;;;;9.60;6.77;;;0.70;99.90;;;;;;4967096;28;21011;-89
2021/04/09 01:19:28;;;;;;;7.10;6.40;;;0.70;99.90;;;;;;4968420;28;20251;-89
2021/04/09 01:22:00;;;;;;;7.70;5.97;;;0.70;99.90;;;;;;4973391;28;20439;-90
2021/04/09 01:24:47;;;;;;;9.83;6.33;;;0.60;99.90;;;;;;4965362;28;20453;-90
2021/04/09 01:27:51;;;;;;;6.67;5.80;;;0.70;99.90;;;;;;4950290;28;20471;-89
2021/04/09 01:30:23;;;;;;;7.17;5.87;;;0.60;99.90;;;;;;4959308;28;20441;-90
2021/04/09 01:32:50;;;;;;;8.23;6.20;;;0.60;99.90;;;;;;4967298;28;20444;-89
2021/04/09 01:35:17;;;;;;;8.40;5.97;;;0.60;99.90;;;;;;4978245;28;20848;-89
2021/04/09 01:37:53;;;;;;;6.83;6.03;;;0.80;99.90;;;;;;4978107;28;20448;-88
2021/04/09 01:40:23;;;;;;;6.60;5.63;;;0.60;99.90;;;;;;4958173;28;20452;-88
2021/04/09 01:42:56;;;;;;;9.30;6.63;;;0.60;99.90;;;;;;4968266;28;22131;-88
2021/04/09 01:45:24;;;;;;;9.00;6.20;;;0.50;99.90;;;;;;4958805;28;20448;-89
2021/04/09 01:47:52;;;;;;;7.03;5.67;;;0.40;99.90;;;;;;4963062;28;20497;-90
2021/04/09 01:50:19;;;;;;;6.60;5.70;;;0.40;99.90;;;;;;4976546;28;20448;-90
2021/04/09 01:52:47;;;;;;;9.27;5.37;;;0.50;99.90;;;;;;4973693;28;20445;-89
2021/04/09 01:55:15;;;;;;;6.73;6.00;;;0.50;99.90;;;;;;4958101;28;20445;-88
2021/04/09 01:57:44;;;;;;;8.20;6.17;;;0.50;99.90;;;;;;4977161;28;20476;-89
2021/04/09 02:00:14;;;;;;;6.63;5.43;;;0.50;99.90;;;;;;4961763;28;20240;-88
2021/04/09 02:02:43;;;;;;;7.90;6.00;;;0.40;99.90;;;;;;4958352;28;20471;-89
2021/04/09 02:05:14;;;;;;;6.40;5.47;;;0.40;99.90;;;;;;4958101;28;20998;-89
2021/04/09 02:07:44;;;;;;;7.80;5.67;;;0.40;99.90;;;;;;4953087;28;20496;-89
2021/04/09 02:10:12;;;;;;;7.70;5.57;;;0.30;99.90;;;;;;4945247;28;20524;-89
2021/04/09 02:12:40;;;;;;;9.25;5.95;;;0.30;99.90;;;;;;4959690;28;20987;-88
2021/04/09 02:15:11;;;;;;;6.57;5.63;;;0.20;99.90;;;;;;4943187;28;20655;-89
2021/04/09 02:17:39;;;;;;;8.63;5.45;;;0.20;99.90;;;;;;4972592;28;20459;-89
2021/04/09 02:20:14;;;;;;;7.60;6.15;;;0.10;99.90;;;;;;4960864;28;20233;-89
2021/04/09 02:22:40;;;;;;;11.03;5.30;;;0.10;99.90;;;;;;4970830;28;20189;-89
2021/04/09 02:25:07;;;;;;;6.97;5.47;;;0.10;99.90;;;;;;4961071;28;20452;-89
2021/04/09 02:27:33;;;;;;;7.53;5.90;;;0.00;99.90;;;;;;4963623;28;20243;-88
2021/04/09 02:30:00;;;;;;;9.27;5.43;;;-0.10;99.90;;;;;;4955495;28;20897;-90
2021/04/09 02:32:28;;;;;;;8.35;5.63;;;-0.10;99.90;;;;;;4968406;28;20289;-89
2021/04/09 02:34:54;;;;;;;9.27;5.32;;;-0.20;99.90;;;;;;4952730;28;20190;-89
2021/04/09 02:37:21;;;;;;;7.87;5.40;;;-0.30;99.90;;;;;;4973178;28;20183;-89
2021/04/09 02:39:55;;;;;;;8.65;5.50;;;-0.20;99.90;;;;;;4969846;28;20765;-90
2021/04/09 02:42:21;;;;;;;9.52;6.07;;;-0.30;99.90;;;;;;4956703;28;20187;-89
2021/04/09 02:44:47;;;;;;;6.85;5.18;;;-0.30;99.90;;;;;;4973207;28;20248;-89
2021/04/09 02:47:28;;;;;;;8.60;5.95;;;-0.40;99.90;;;;;;4974057;28;20304;-89
2021/04/09 02:50:09;;;;;;;6.10;5.03;;;-0.40;99.90;;;;;;4962544;28;20272;-88
2021/04/09 02:52:41;;;;;;;9.40;5.90;;;-0.30;99.90;;;;;;4975372;28;20181;-88
2021/04/09 02:55:14;;;;;;;5.93;5.33;;;-0.40;99.90;;;;;;4960680;28;20186;-89
2021/04/09 02:57:40;;;;;;;8.23;5.50;;;-0.40;99.90;;;;;;4973842;28;20456;-89
2021/04/09 03:00:31;;;;;;;7.57;5.55;;;-0.30;99.90;;;;;;4975796;28;20557;-89
2021/04/09 03:03:18;;;;;;;7.18;5.30;;;-0.30;99.90;;;;;;4974242;28;20561;-88
2021/04/09 03:05:45;;;;;;;10.05;5.82;;;-0.30;99.90;;;;;;4955824;28;20192;-88
2021/04/09 03:08:12;;;;;;;7.07;6.03;;;-0.30;99.90;;;;;;4973925;28;20600;-87
2021/04/09 03:10:38;;;;;;;9.25;6.25;;;-0.30;99.90;;;;;;4958356;28;20592;-88
2021/04/09 03:13:04;;;;;;;6.87;5.07;;;-0.30;99.90;;;;;;4953685;28;20298;-88
2021/04/09 03:15:46;;;;;;;10.70;5.50;;;-0.40;99.90;;;;;;4959992;28;20954;-89
2021/04/09 03:18:13;;;;;;;7.72;6.22;;;-0.30;99.90;;;;;;4976831;28;20472;-89
2021/04/09 03:20:40;;;;;;;6.85;6.15;;;-0.40;99.90;;;;;;4973562;28;20224;-88
2021/04/09 03:23:06;;;;;;;9.07;5.88;;;-0.40;99.90;;;;;;4977185;28;20195;-89
2021/04/09 03:25:33;;;;;;;6.35;5.70;;;-0.40;99.90;;;;;;4971612;28;20186;-88
2021/04/09 03:27:58;;;;;;;7.68;5.85;;;-0.40;99.90;;;;;;4959548;28;20628;-89
2021/04/09 03:30:25;;;;;;;8.07;5.33;;;-0.40;99.90;;;;;;4973341;28;21259;-89
2021/04/09 03:32:51;;;;;;;11.15;5.90;;;-0.30;99.90;;;;;;4972592;28;20188;-89
2021/04/09 03:35:30;;;;;;;8.40;5.55;;;-0.30;99.90;;;;;;4970737;28;20202;-89
2021/04/09 03:38:17;;;;;;;8.95;5.75;;;-0.30;99.90;;;;;;4971183;28;20683;-88
2021/04/09 03:40:43;;;;;;;9.15;6.15;;;-0.30;99.90;;;;;;4973950;28;20307;-89
2021/04/09 03:43:11;;;;;;;7.37;5.70;;;-0.30;99.90;;;;;;4949510;28;20653;-89
2021/04/09 03:45:36;;;;;;;8.65;6.00;;;-0.30;99.90;;;;;;4953254;28;20438;-89
2021/04/09 03:48:02;;;;;;;9.13;5.97;;;-0.30;99.90;;;;;;4962192;28;20714;-89
2021/04/09 03:50:42;;;;;;;9.17;6.33;;;-0.30;99.90;;;;;;4956045;28;20591;-89
2021/04/09 03:53:11;;;;;;;8.70;7.20;;;-0.30;99.90;;;;;;4969252;28;21030;-89
2021/04/09 03:55:37;;;;;;;7.90;7.10;;;-0.30;99.90;;;;;;4969850;28;20467;-89
2021/04/09 03:58:03;;;;;;;9.83;7.00;;;-0.20;99.90;;;;;;4966204;28;20190;-89
2021/04/09 04:00:29;;;;;;;7.60;6.30;;;-0.30;99.90;;;;;;4957966;28;20202;-89
2021/04/09 04:02:55;;;;;;;6.87;6.17;;;-0.30;99.90;;;;;;4971309;28;20539;-87
2021/04/09 04:05:21;;;;;;;8.10;5.80;;;-0.30;99.90;;;;;;4970655;28;20548;-87
2021/04/09 04:07:46;;;;;;;8.15;6.28;;;-0.30;99.90;;;;;;4970638;28;21082;-87
2021/04/09 04:10:13;;;;;;;6.63;6.00;;;-0.20;99.90;;;;;;4957730;28;20530;-87
2021/04/09 04:12:39;;;;;;;7.22;6.15;;;-0.30;99.90;;;;;;4955481;28;20209;-88
2021/04/09 04:15:06;;;;;;;7.23;6.07;;;-0.20;99.90;;;;;;4968822;28;20548;-87
2021/04/09 04:17:31;;;;;;;8.63;6.35;;;-0.30;99.90;;;;;;4969133;28;20207;-87
2021/04/09 04:19:57;;;;;;;8.60;6.83;;;-0.40;99.90;;;;;;4955913;28;20271;-87
2021/04/09 04:22:23;;;;;;;6.60;5.90;;;-0.40;99.90;;;;;;4959560;28;20221;-86
2021/04/09 04:24:48;;;;;;;10.07;6.40;;;-0.40;99.90;;;;;;4973902;28;20194;-86
2021/04/09 04:27:14;;;;;;;10.57;6.50;;;-0.40;99.90;;;;;;4958532;28;20894;-86
2021/04/09 04:29:40;;;;;;;10.97;7.30;;;-0.40;99.90;;;;;;4976462;28;20206;-86
2021/04/09 04:32:06;;;;;;;9.63;6.30;;;-0.40;99.90;;;;;;4976355;28;20197;-87
2021/04/09 04:34:32;;;;;;;8.43;6.55;;;-0.40;99.90;;;;;;4973750;28;20278;-87
2021/04/09 04:36:58;;;;;;;7.30;6.30;;;-0.40;99.90;;;;;;4973047;28;20735;-87
2021/04/09 04:39:24;;;;;;;9.30;5.90;;;-0.40;99.90;;;;;;4977662;28;20265;-87
2021/04/09 04:41:49;;;;;;;9.27;5.90;;;-0.50;99.90;;;;;;4974310;28;20233;-87
2021/04/09 04:44:15;;;;;;;8.83;6.80;;;-0.50;99.90;;;;;;4972214;28;20511;-87
2021/04/09 04:46:41;;;;;;;8.50;6.30;;;-0.60;99.90;;;;;;4974939;28;20197;-87
2021/04/09 04:49:07;;;;;;;7.87;6.50;;;-0.50;99.90;;;;;;4956513;28;20464;-88
2021/04/09 04:51:33;;;;;;;8.70;7.10;;;-0.50;99.90;;;;;;4959226;28;20215;-86
2021/04/09 04:53:59;;;;;;;10.30;7.32;;;-0.30;99.90;;;;;;4955644;28;20185;-86
2021/04/09 04:56:24;;;;;;;9.83;6.97;;;-0.40;99.90;;;;;;4972758;28;20183;-86
2021/04/09 04:58:50;;;;;;;9.87;7.13;;;-0.40;99.90;;;;;;4975126;28;20929;-87
2021/04/09 05:01:16;;;;;;;11.27;7.40;;;-0.40;99.90;;;;;;4958922;28;20181;-86
2021/04/09 05:03:45;;;;;;;10.63;7.00;;;-0.40;99.90;;;;;;4975303;28;20193;-87
2021/04/09 05:06:11;;;;;;;8.60;7.28;;;-0.30;99.90;;;;;;4971527;28;20213;-87
2021/04/09 05:08:36;;;;;;;10.65;7.05;;;-0.30;99.90;;;;;;4976661;28;20213;-86
2021/04/09 05:11:02;;;;;;;9.90;7.20;;;-0.30;99.90;;;;;;4974991;28;20244;-87
2021/04/09 05:13:28;;;;;;;10.37;7.00;;;-0.30;99.90;;;;;;4976827;28;20477;-87
2021/04/09 05:15:54;;;;;;;8.90;6.60;;;-0.20;99.90;;;;;;4959282;28;20437;-86
2021/04/09 05:18:19;;;;;;;10.57;6.80;;;-0.20;99.90;;;;;;4976752;28;20235;-86
2021/04/09 05:20:45;;;;;;;9.63;7.60;;;-0.10;99.90;;;;;;4960186;28;20177;-87
2021/04/09 05:23:13;;;;;;;7.30;6.40;;;0.10;99.90;;;;;;4960092;28;20652;-87
2021/04/09 05:25:43;;;;;;;8.70;6.90;;;0.10;99.90;;;;;;4971410;28;20205;-88
2021/04/09 05:28:14;;;;;;;8.65;6.85;;;0.20;99.90;;;;;;4974340;28;20193;-87
2021/04/09 05:30:46;;;;;;;8.20;6.43;;;0.30;99.90;;;;;;4951845;28;20195;-87
2021/04/09 05:33:13;;;;;;;11.03;6.70;;;0.50;99.90;;;;;;4976704;28;20445;-88
2021/04/09 05:35:44;;;;;;;8.73;7.10;;;0.60;99.90;;;;;;4976006;28;20452;-85
2021/04/09 05:38:39;;;;;;;12.97;6.70;;;0.60;99.90;;;;;;4973871;28;20527;-86
2021/04/09 05:41:05;;;;;;;9.00;6.53;;;0.80;99.90;;;;;;4948575;28;20796;-84
2021/04/09 05:43:30;;;;;;;8.23;6.60;;;0.80;99.90;;;;;;4965002;28;20484;-83
2021/04/09 05:45:56;;;;;;;9.20;6.70;;;0.80;99.90;;;;;;4968732;28;20192;-83
2021/04/09 05:48:22;;;;;;;14.30;7.77;;;1.00;99.90;;;;;;4972613;28;20560;-83
2021/04/09 05:50:47;;;;;;;9.97;7.53;;;1.20;99.90;;;;;;4957526;28;20194;-84
2021/04/09 05:53:14;;;;;;;11.17;7.37;;;1.20;99.90;;;;;;4967678;28;20225;-82
2021/04/09 05:55:41;;;;;;;9.40;7.53;;;1.40;99.90;;;;;;4968415;28;20552;-83
2021/04/09 05:58:07;;;;;;;9.00;6.80;;;1.40;99.90;;;;;;4948922;28;20466;-84
2021/04/09 06:00:32;;;;;;;8.17;6.87;;;1.50;99.90;;;;;;4954050;28;20616;-83
2021/04/09 06:02:58;;;;;;;10.10;7.70;;;1.60;99.90;;;;;;4956817;28;21010;-84
2021/04/09 06:05:24;;;;;;;8.17;6.70;;;1.60;99.90;;;;;;4968342;28;20186;-85
2021/04/09 06:07:50;;;;;;;9.03;6.90;;;1.70;99.90;;;;;;4974115;28;20459;-84
2021/04/09 06:10:15;;;;;;;10.23;6.33;;;1.70;99.90;;;;;;4970718;28;20338;-85
2021/04/09 06:12:42;;;;;;;7.87;7.00;;;1.70;99.90;;;;;;4977192;28;20217;-85
2021/04/09 06:15:12;;;;;;;8.10;6.57;;;1.70;99.90;;;;;;4960072;28;20193;-85
2021/04/09 06:17:38;;;;;;;8.50;7.13;;;1.80;99.90;;;;;;4940247;28;21178;-84
2021/04/09 06:20:05;;;;;;;10.77;7.63;;;2.00;99.90;;;;;;4964155;28;20483;-83
2021/04/09 06:22:31;;;;;;;7.90;6.60;;;2.10;99.90;;;;;;4965198;28;20460;-83
2021/04/09 06:24:56;;;;;;;13.93;6.60;;;2.20;99.90;;;;;;4955598;28;20451;-85
2021/04/09 06:27:22;;;;;;;7.47;6.50;;;2.30;99.90;;;;;;4959535;28;20204;-84
2021/04/09 06:29:48;;;;;;;6.63;5.93;;;2.30;99.90;;;;;;4960563;28;20193;-84
2021/04/09 06:32:13;;;;;;;8.43;6.63;;;2.20;99.90;;;;;;4967900;28;20235;-82
2021/04/09 06:34:39;;;;;;;7.07;5.70;;;2.40;99.90;;;;;;4957565;28;20282;-82
2021/04/09 06:37:05;;;;;;;7.10;6.40;;;2.50;99.90;;;;;;4977820;28;20603;-84
2021/04/09 06:39:31;;;;;;;8.27;6.60;;;2.50;99.90;;;;;;4972683;28;20241;-83
2021/04/09 06:41:57;;;;;;;8.20;6.50;;;2.60;99.90;;;;;;4977768;28;20205;-84
2021/04/09 06:44:23;;;;;;;7.87;7.07;;;2.70;99.90;;;;;;4964555;28;20232;-83
2021/04/09 06:46:48;;;;;;;9.70;6.83;;;2.70;99.90;;;;;;4975340;28;21006;-84
2021/04/09 06:49:14;;;;;;;12.67;7.50;;;2.90;99.90;;;;;;4959720;28;20245;-84
2021/04/09 06:51:45;;;;;;;11.07;7.40;;;3.10;99.90;;;;;;4978036;28;20206;-82
2021/04/09 06:54:12;;;;;;;8.53;6.73;;;3.40;99.90;;;;;;4963702;28;20544;-84
2021/04/09 06:56:38;;;;;;;11.23;7.83;;;3.70;99.90;;;;;;4976707;28;20532;-84
2021/04/09 06:59:05;;;;;;;10.30;7.60;;;3.90;99.90;;;;;;4977283;28;20488;-84
2021/04/09 07:01:31;;;;;;;15.37;8.03;;;4.20;99.90;;;;;;4971904;28;20549;-85
2021/04/09 07:04:01;;;;;;;13.60;8.93;;;4.20;99.90;;;;;;4976475;28;20448;-84
2021/04/09 07:06:30;;;;;;;15.70;9.63;;;4.10;99.90;;;;;;4979166;28;20597;-85
2021/04/09 07:08:56;;;;;;;10.33;8.20;;;4.20;99.90;;;;;;4976241;28;20437;-84
2021/04/09 07:11:24;;;;;;;11.17;8.53;;;4.40;99.90;;;;;;4977629;28;20900;-84
2021/04/09 07:13:53;;;;;;;17.70;9.70;;;4.40;99.90;;;;;;4975280;28;20440;-84
2021/04/09 07:16:20;;;;;;;12.87;9.03;;;4.60;99.90;;;;;;4978360;28;20453;-84
2021/04/09 07:18:52;;;;;;;11.13;8.33;;;5.10;99.90;;;;;;4977039;28;20503;-84
2021/04/09 07:21:30;;;;;;;10.60;8.50;;;5.40;99.90;;;;;;4961993;28;20440;-85
2021/04/09 07:24:14;;;;;;;13.63;7.77;;;6.00;99.90;;;;;;4961257;28;20457;-84
2021/04/09 07:26:50;;;;;;;13.67;7.77;;;6.50;97.90;;;;;;4963316;28;20440;-85
2021/04/09 07:29:31;;;;;;;10.17;7.70;;;6.90;96.40;;;;;;4977638;28;20946;-84
2021/04/09 07:32:17;;;;;;;8.53;6.43;;;7.20;95.60;;;;;;4980609;28;20499;-85
2021/04/09 07:34:53;;;;;;;7.90;6.70;;;7.60;94.30;;;;;;4961461;28;20432;-85
2021/04/09 07:37:20;;;;;;;9.43;6.67;;;7.30;92.30;;;;;;4960915;28;21901;-85
2021/04/09 07:39:46;;;;;;;6.83;6.13;;;7.30;92.50;;;;;;4979901;28;21015;-84
2021/04/09 07:42:28;;;;;;;9.53;6.50;;;7.40;92.30;;;;;;4975959;28;20449;-85
2021/04/09 07:44:59;;;;;;;8.10;6.70;;;7.50;91.90;;;;;;4960362;28;20572;-85
2021/04/09 07:47:28;;;;;;;8.97;6.60;;;7.60;92.20;;;;;;4974500;28;20464;-85
2021/04/09 07:50:01;;;;;;;6.90;6.20;;;7.80;91.90;;;;;;4975145;28;20455;-85
2021/04/09 07:52:41;;;;;;;6.60;5.77;;;7.80;91.10;;;;;;4975579;28;20442;-85
2021/04/09 07:55:31;;;;;;;7.23;5.70;;;7.90;89.50;;;;;;4977783;28;20460;-85
2021/04/09 07:58:14;;;;;;;7.77;5.40;;;7.70;89.60;;;;;;4961836;28;20444;-85
2021/04/09 08:00:40;;;;;;;6.13;5.43;;;8.00;89.60;;;;;;4950662;28;20444;-85
2021/04/09 08:03:06;;;;;;;6.53;5.10;;;8.30;87.90;;;;;;4972645;28;20862;-84
2021/04/09 08:05:32;;;;;;;6.40;5.60;;;8.70;84.00;;;;;;4958504;28;20532;-85
2021/04/09 08:07:57;;;;;;;9.10;6.07;;;9.00;83.40;;;;;;4961851;28;21137;-85
2021/04/09 08:10:31;;;;;;;6.47;5.50;;;9.30;81.80;;;;;;4976393;28;20512;-85
2021/04/09 08:12:58;;;;;;;5.60;5.10;;;9.70;80.70;;;;;;4953846;28;20190;-85
2021/04/09 08:15:28;;;;;;;6.30;5.70;;;9.70;78.60;;;;;;4970361;28;20441;-85
2021/04/09 08:18:09;;;;;;;6.30;5.70;;;9.80;79.10;;;;;;4974494;28;20445;-85
2021/04/09 08:20:36;;;;;;;8.40;6.20;;;10.10;77.90;;;;;;4955849;28;20495;-85
2021/04/09 08:23:06;;;;;;;7.47;6.70;;;10.50;77.30;;;;;;4974006;28;20808;-87
2021/04/09 08:25:35;;;;;;;8.90;6.40;;;10.80;74.50;;;;;;4964371;28;20455;-85
2021/04/09 08:28:05;;;;;;;7.27;6.00;;;10.90;73.20;;;;;;4956709;28;20466;-84
2021/04/09 08:30:31;;;;;;;6.20;5.57;;;10.90;73.40;;;;;;4971336;28;20447;-83
2021/04/09 08:32:58;;;;;;;7.90;6.00;;;10.50;73.10;;;;;;4956310;28;21081;-82
2021/04/09 08:35:25;;;;;;;6.00;5.40;;;10.30;76.00;;;;;;4973624;28;20455;-82
2021/04/09 08:37:51;;;;;;;6.13;5.53;;;10.00;74.20;;;;;;4971340;28;20798;-82
2021/04/09 08:40:23;;;;;;;7.70;6.30;;;10.10;74.80;;;;;;4975762;28;20479;-83
2021/04/09 08:42:49;;;;;;;6.47;5.87;;;10.40;74.30;;;;;;4940820;28;20446;-82
2021/04/09 08:45:16;;;;;;;7.03;5.87;;;10.60;73.90;;;;;;4974862;28;20847;-82
2021/04/09 08:47:43;;;;;;;5.80;5.23;;;10.70;73.00;;;;;;4958931;28;20228;-82
2021/04/09 08:50:13;;;;;;;7.93;6.47;;;10.70;73.30;;;;;;4972149;28;20541;-83
2021/04/09 08:52:50;;;;;;;8.67;6.07;;;10.60;71.20;;;;;;4955084;28;21123;-84
2021/04/09 08:55:16;;;;;;;8.73;5.60;;;10.80;70.80;;;;;;4955389;28;20453;-83
2021/04/09 08:57:45;;;;;;;6.47;5.83;;;10.80;70.10;;;;;;4957749;28;20446;-83
2021/04/09 09:00:17;;;;;;;6.10;5.00;;;11.10;69.80;;;;;;4968501;28;20493;-83
2021/04/09 09:02:47;;;;;;;7.20;4.70;;;11.20;68.90;;;;;;4952489;28;20546;-83
2021/04/09 09:05:26;;;;;;;6.37;5.10;;;11.30;66.90;;;;;;4974058;28;21811;-83
2021/04/09 09:07:52;;;;;;;5.37;3.90;;;11.40;65.10;;;;;;4950993;28;20454;-83
2021/04/09 09:10:29;;;;;;;7.27;5.10;;;11.40;63.40;;;;;;4960229;28;20444;-82
2021/04/09 09:13:04;;;;;;;4.90;4.40;;;11.50;65.80;;;;;;4968574;28;20216;-83
2021/04/09 09:15:42;;;;;;;6.57;5.60;;;11.40;67.30;;;;;;4962113;28;20448;-81
2021/04/09 09:18:24;;;;;;;6.20;4.60;;;11.40;65.80;;;;;;4971522;28;20445;-82
2021/04/09 09:21:10;;;;;;;7.20;5.27;;;11.60;66.00;;;;;;4975912;28;20454;-82
2021/04/09 09:23:45;;;;;;;8.33;5.50;;;11.80;65.80;;;;;;4975408;28;20455;-82
2021/04/09 09:26:33;;;;;;;5.80;5.30;;;11.90;64.90;;;;;;4975486;28;20439;-83
2021/04/09 09:29:16;;;;;;;6.80;5.03;;;11.80;65.00;;;;;;4967016;28;20457;-82
2021/04/09 09:32:02;;;;;;;6.80;5.20;;;11.70;61.80;;;;;;4956908;28;20452;-82
2021/04/09 09:34:32;;;;;;;6.33;5.67;;;11.60;61.70;;;;;;4967210;28;20461;-83
2021/04/09 09:37:01;;;;;;;6.00;5.37;;;11.50;65.20;;;;;;4968903;28;20962;-83
2021/04/09 09:39:37;;;;;;;6.93;5.57;;;11.80;64.10;;;;;;4957948;28;20491;-83
2021/04/09 09:42:09;;;;;;;5.93;5.33;;;11.80;61.50;;;;;;4952139;28;20518;-82
2021/04/09 09:44:40;;;;;;;5.00;4.50;;;11.80;59.90;;;;;;4980792;28;20458;-82
2021/04/09 09:47:07;;;;;;;5.83;4.30;;;11.70;57.30;;;;;;4963365;28;20441;-82
2021/04/09 09:49:37;;;;;;;6.70;5.10;;;11.70;57.10;;;;;;4946028;28;20444;-83
2021/04/09 09:52:04;;;;;;;7.87;4.87;;;11.90;57.30;;;;;;4973653;28;20461;-82
2021/04/09 09:54:35;;;;;;;7.23;5.30;;;12.10;55.90;;;;;;4978763;28;21589;-82
2021/04/09 09:57:45;;;;;;;4.87;4.47;;;12.10;55.50;;;;;;4976415;28;20791;-83
2021/04/09 10:00:13;;;;;;;5.13;4.63;;;12.10;55.10;;;;;;4958554;28;20580;-82
2021/04/09 10:02:41;;;;;;;9.60;4.97;;;12.50;54.20;;;;;;4977185;28;20452;-82
2021/04/09 10:05:09;;;;;;;5.43;4.13;;;12.70;54.10;;;;;;4973180;28;20448;-82
2021/04/09 10:07:36;;;;;;;6.13;4.83;;;12.80;53.70;;;;;;4975331;28;20448;-82
2021/04/09 10:10:02;;;;;;;9.57;5.07;;;13.10;53.60;;;;;;4974184;28;20511;-81
2021/04/09 10:12:28;;;;;;;6.80;4.73;;;13.10;53.00;;;;;;4975369;28;20444;-81
2021/04/09 10:14:56;;;;;;;4.70;4.30;;;13.30;51.70;;;;;;4977912;28;20444;-82
2021/04/09 10:17:21;;;;;;;4.70;4.30;;;13.20;51.70;;;;;;4960727;28;20206;-82
2021/04/09 10:20:06;;;;;;;5.43;4.70;;;13.30;50.10;;;;;;4956929;28;20519;-81
2021/04/09 10:22:32;;;;;;;7.27;4.60;;;13.20;50.70;;;;;;4971390;28;20188;-81
2021/04/09 10:25:00;;;;;;;16.60;5.70;;;13.50;51.10;;;;;;4968717;28;20440;-81
2021/04/09 10:27:29;;;;;;;7.60;4.83;;;13.30;50.30;;;;;;4966402;28;20475;-81
2021/04/09 10:29:54;;;;;;;6.93;4.67;;;13.40;51.10;;;;;;4953677;28;20452;-81
2021/04/09 10:32:21;;;;;;;6.33;4.53;;;13.50;50.90;;;;;;4973190;28;20195;-81
2021/04/09 10:34:51;;;;;;;8.60;5.70;;;13.40;50.80;;;;;;4972937;28;20190;-81
2021/04/09 10:37:22;;;;;;;9.43;7.07;;;13.40;50.30;;;;;;4969887;28;20500;-81
2021/04/09 10:39:49;;;;;;;5.57;4.70;;;13.50;49.10;;;;;;4983036;28;20484;-82
2021/04/09 10:42:14;;;;;;;5.57;4.37;;;13.40;46.40;;;;;;4968231;28;20452;-82
2021/04/09 10:44:40;;;;;;;5.80;3.63;;;13.40;46.70;;;;;;4962172;28;20436;-81
2021/04/09 10:47:09;;;;;;;4.77;3.73;;;13.80;44.70;;;;;;4967848;28;20197;-80
2021/04/09 10:49:37;;;;;;;5.27;3.63;;;13.50;44.00;;;;;;4967838;28;20190;-80
2021/04/09 10:52:15;;;;;;;4.53;2.73;;;13.50;45.60;;;;;;4969931;28;20512;-80
2021/04/09 10:54:43;;;;;;;3.50;3.20;;;13.50;43.70;;;;;;4952336;28;20447;-81
2021/04/09 10:57:11;;;;;;;5.63;3.47;;;13.50;43.90;;;;;;4955316;28;20463;-82
2021/04/09 10:59:41;;;;;;;2.90;2.60;;;13.60;45.10;;;;;;4972640;28;20532;-82
2021/04/09 11:02:19;;;;;;;3.70;3.37;;;13.50;43.90;;;;;;4967631;28;20563;-83
2021/04/09 11:04:53;;;;;;;4.10;3.07;;;13.30;42.80;;;;;;4969142;28;20543;-83
2021/04/09 11:07:20;;;;;;;4.80;3.43;;;13.30;43.80;;;;;;4947466;28;20549;-85
2021/04/09 11:09:48;;;;;;;5.10;3.13;;;13.60;43.20;;;;;;4957535;28;20819;-82
2021/04/09 11:12:20;;;;;;;5.37;2.70;;;14.00;43.10;;;;;;4952809;28;20450;-82
2021/04/09 11:14:47;;;;;;;3.90;3.13;;;13.90;41.70;;;;;;4937999;28;20461;-80
2021/04/09 11:17:26;;;;;;;3.10;2.80;;;13.80;41.70;;;;;;4959887;28;20540;-80
2021/04/09 11:19:58;;;;;;;3.50;2.77;;;14.10;41.10;;;;;;4956078;28;21069;-82
2021/04/09 11:22:26;;;;;;;4.47;3.53;;;14.10;40.60;;;;;;4966722;28;20507;-80
2021/04/09 11:25:02;;;;;;;3.40;3.10;;;14.20;41.20;;;;;;4953882;28;20476;-80
2021/04/09 11:27:33;;;;;;;5.73;2.73;;;14.40;41.10;;;;;;4965441;28;20462;-81
2021/04/09 11:30:14;;;;;;;3.30;2.70;;;14.30;38.70;;;;;;4948880;28;20487;-81
2021/04/09 11:32:47;;;;;;;3.87;2.57;;;14.30;39.40;;;;;;4969651;28;20452;-82
2021/04/09 11:35:13;;;;;;;4.20;2.90;;;14.60;40.10;;;;;;4970868;28;21872;-81
2021/04/09 11:37:57;;;;;;;2.63;2.20;;;14.80;38.80;;;;;;4968543;28;20973;-81
2021/04/09 11:40:46;;;;;;;2.60;2.37;;;14.70;38.60;;;;;;4967822;28;20579;-82
2021/04/09 11:43:13;;;;;;;2.67;2.37;;;14.60;37.70;;;;;;4953253;28;20474;-82
2021/04/09 11:45:42;;;;;;;3.50;2.60;;;14.80;38.20;;;;;;4963256;28;20929;-82
2021/04/09 11:48:25;;;;;;;4.70;2.40;;;15.20;39.20;;;;;;4970617;28;20535;-82
2021/04/09 11:50:53;;;;;;;2.90;2.30;;;15.80;37.80;;;;;;4952585;28;20813;-82
2021/04/09 11:53:18;;;;;;;3.10;2.23;;;15.90;36.60;;;;;;4973637;28;20848;-81
2021/04/09 11:55:47;;;;;;;2.77;2.50;;;15.70;36.00;;;;;;4972380;28;20448;-81
2021/04/09 11:58:31;;;;;;;3.50;2.50;;;15.80;35.50;;;;;;4941942;28;20218;-81
2021/04/09 12:01:03;;;;;;;3.43;2.20;;;15.80;34.70;;;;;;4954025;28;20449;-81
2021/04/09 12:03:47;;;;;;;2.83;2.27;;;15.90;34.90;;;;;;4948432;28;20460;-81
2021/04/09 12:06:19;;;;;;;3.53;2.37;;;16.50;34.80;;;;;;4969090;28;20456;-83
2021/04/09 12:08:46;;;;;;;6.73;2.60;;;16.80;33.20;;;;;;4954481;28;20823;-81
2021/04/09 12:11:13;;;;;;;6.57;2.90;;;16.70;33.80;;;;;;4965191;28;20856;-81
2021/04/09 12:13:44;;;;;;;3.80;2.70;;;16.60;32.80;;;;;;4966778;28;20472;-81
2021/04/09 12:16:10;;;;;;;4.07;2.23;;;16.50;32.60;;;;;;4969460;28;20449;-82
2021/04/09 12:18:35;;;;;;;4.80;2.50;;;16.90;33.20;;;;;;4966850;28;21033;-81
2021/04/09 12:21:02;;;;;;;5.57;2.17;;;16.80;32.50;;;;;;4973404;28;20206;-81
2021/04/09 12:23:27;;;;;;;2.33;2.07;;;17.10;30.90;;;;;;4969512;28;20193;-82
2021/04/09 12:25:57;;;;;;;2.53;2.20;;;17.20;30.90;;;;;;4955585;28;21084;-81
2021/04/09 12:28:24;;;;;;;3.80;2.40;;;16.80;31.20;;;;;;4968363;28;20998;-82
2021/04/09 12:30:51;;;;;;;5.40;2.30;;;16.60;30.60;;;;;;4947873;28;20447;-82
2021/04/09 12:33:17;;;;;;;4.30;1.73;;;16.80;31.30;;;;;;4968140;28;20448;-81
2021/04/09 12:35:48;;;;;;;2.30;2.10;;;16.80;30.80;;;;;;4965574;28;20492;-80
2021/04/09 12:38:14;;;;;;;3.40;2.10;;;16.60;30.80;;;;;;4963448;28;20948;-82
2021/04/09 12:40:39;;;;;;;2.70;1.80;;;16.90;30.90;;;;;;4936486;28;20457;-82
2021/04/09 12:43:05;;;;;;;2.97;1.80;;;16.80;29.80;;;;;;4957862;28;20682;-83
2021/04/09 12:45:30;;;;;;;2.00;1.60;;;16.80;29.30;;;;;;4966135;28;20198;-81
2021/04/09 12:47:56;;;;;;;3.43;1.97;;;17.10;29.30;;;;;;4963946;28;20217;-80
2021/04/09 12:50:22;;;;;;;2.33;1.80;;;17.60;28.70;;;;;;4963161;28;20726;-81
2021/04/09 12:52:48;;;;;;;2.30;1.83;;;17.40;27.70;;;;;;4950443;28;20197;-80
2021/04/09 12:55:13;;;;;;;4.03;3.00;;;17.30;28.20;;;;;;4965563;28;20565;-80
2021/04/09 12:57:39;;;;;;;2.43;1.90;;;17.00;28.20;;;;;;4964288;28;20675;-81
2021/04/09 13:00:07;;;;;;;2.23;1.73;;;17.20;27.80;;;;;;4956770;28;20229;-81
2021/04/09 13:02:32;;;;;;;3.00;1.93;;;17.30;27.40;;;;;;4962234;28;20248;-81
2021/04/09 13:04:58;;;;;;;2.57;2.03;;;17.30;27.70;;;;;;4948584;28;20462;-80